This is the latest recevied weather packets stored in our database for station/object DK4DAX-2. If no packets are shown the sender has not sent any weather packets the latest 10 day(s).
| Time | Temp. | Humidity | Pressure | Rain* | Wind** | Luminosity | Snow |
|---|---|---|---|---|---|---|---|
| 1787819403 | 23.33° C | 61% | 1008.7 hPa | 0 mm | - | - | - |
| 1787818503 | 22.78° C | 62% | 1008.9 hPa | 0 mm | - | - | - |
| 1787817604 | 22.22° C | 63% | 1009.1 hPa | 0 mm | - | - | - |
| 1787816703 | 22.78° C | 62% | 1009.2 hPa | 0 mm | - | - | - |
| 1787815803 | 21.67° C | 66% | 1009.5 hPa | 0 mm | - | - | - |
| 1787814904 | 21.11° C | 69% | 1009.6 hPa | 0 mm | - | - | - |
| 1787814003 | 21.11° C | 69% | 1009.4 hPa | 0 mm | - | - | - |
| 1787813103 | 20.56° C | 72% | 1009.5 hPa | 0 mm | - | - | - |
| 1787812203 | 20° C | 74% | 1009.4 hPa | 0 mm | - | - | - |
| 1787811304 | 19.44° C | 78% | 1009.3 hPa | 0 mm | - | - | - |
| 1787810403 | 18.89° C | 81% | 1009.6 hPa | 0 mm | - | - | - |
| 1787809503 | 18.33° C | 84% | 1009.7 hPa | 0 mm | - | - | - |
| 1787808604 | 18.33° C | 85% | 1009.8 hPa | 0 mm | - | - | - |
| 1787807703 | 17.78° C | 85% | 1009.8 hPa | 0 mm | - | - | - |
| 1787806803 | 17.78° C | 85% | 1009.6 hPa | 0 mm | - | - | - |
| 1787805903 | 17.78° C | 85% | 1009.7 hPa | 0 mm | - | - | - |
| 1787805003 | 17.78° C | 84% | 1009.8 hPa | 0 mm | - | - | - |
| 1787804103 | 17.78° C | 84% | 1010.1 hPa | 0 mm | - | - | - |
| 1787803203 | 17.78° C | 84% | 1010.1 hPa | 0 mm | - | - | - |
| 1787802304 | 18.33° C | 84% | 1010.3 hPa | 0 mm | - | - | - |
| 1787801403 | 18.33° C | 83% | 1010.2 hPa | 0 mm | - | - | - |
| 1787800503 | 18.33° C | 82% | 1010.4 hPa | 0 mm | - | - | - |
| 1787799604 | 18.33° C | 82% | 1010.5 hPa | 0 mm | - | - | - |
| 1787798703 | 18.33° C | 82% | 1010.2 hPa | 0 mm | - | - | - |
| 1787797803 | 18.89° C | 81% | 1010.1 hPa | 0 mm | - | - | - |
* Rain latest hour (hover to see other rain measurements)
** Current wind speed in m/s (hover to see current wind gust speed)